Time;durP1;ratioP1;P1;durP2;ratioP2;P2;SDS_P1;SDS_P2;PMS_P1;PMS_P2;Temp;Humidity;BMP_temperature;BMP_pressure;BME280_temperature;BME280_humidity;BME280_pressure;Samples;Min_cycle;Max_cycle;Signal;HPM_P1;HPM_P2
2023/10/09 00:00:35;;;;;;;10.73;3.50;;;;;;;;;;5009890;28;20029;-68
2023/10/09 00:02:50;;;;;;;14.47;3.93;;;;;;;;;;5004318;28;20054;-68
2023/10/09 00:05:23;;;;;;;11.33;3.90;;;;;;;;;;4999237;28;20021;-69
2023/10/09 00:07:48;;;;;;;6.90;3.33;;;;;;;;;;4991940;28;20444;-68
2023/10/09 00:10:14;;;;;;;9.43;3.40;;;;;;;;;;4992955;28;20065;-69
2023/10/09 00:12:43;;;;;;;7.13;3.20;;;;;;;;;;4994481;28;20018;-69
2023/10/09 00:15:12;;;;;;;10.07;3.20;;;;;;;;;;4999768;28;20025;-69
2023/10/09 00:17:39;;;;;;;11.00;3.33;;;;;;;;;;5002600;28;20062;-68
2023/10/09 00:20:17;;;;;;;8.83;3.50;;;;;;;;;;4990913;28;20034;-68
2023/10/09 00:22:45;;;;;;;11.03;3.77;;;;;;;;;;4991050;28;20030;-68
2023/10/09 00:25:11;;;;;;;8.53;3.27;;;;;;;;;;4991182;28;20472;-68
2023/10/09 00:27:37;;;;;;;11.77;3.43;;;;;;;;;;4991090;28;20033;-68
2023/10/09 00:30:06;;;;;;;8.77;3.20;;;;;;;;;;5009809;28;20026;-69
2023/10/09 00:32:33;;;;;;;11.23;3.40;;;;;;;;;;5008071;28;20029;-69
2023/10/09 00:35:13;;;;;;;9.60;3.60;;;;;;;;;;4991825;28;20022;-68
2023/10/09 00:37:39;;;;;;;8.27;3.23;;;;;;;;;;4991131;28;20420;-68
2023/10/09 00:40:20;;;;;;;7.70;3.23;;;;;;;;;;4990699;28;20107;-68
2023/10/09 00:42:46;;;;;;;9.27;3.50;;;;;;;;;;4990697;28;20026;-68
2023/10/09 00:45:16;;;;;;;11.27;3.50;;;;;;;;;;4994738;28;20097;-69
2023/10/09 00:47:41;;;;;;;8.53;3.40;;;;;;;;;;4990629;28;20100;-68
2023/10/09 00:52:44;;;;;;;;;;;;;;;;;;5010213;28;20021;-68
2023/10/09 00:55:13;;;;;;;7.73;3.40;;;;;;;;;;5008370;28;19909;-69
2023/10/09 00:57:40;;;;;;;9.33;3.43;;;;;;;;;;5000516;28;20429;-68
2023/10/09 01:05:57;;;;;;;9.83;3.80;;;;;;;;;;5010017;28;20040;-68
2023/10/09 01:11:18;;;;;;;8.10;3.50;;;;;;;;;;5011576;28;20025;-68
2023/10/09 01:16:15;;;;;;;9.20;3.70;;;;;;;;;;5000643;28;20046;-69
2023/10/09 01:18:43;;;;;;;9.80;3.47;;;;;;;;;;5001774;28;20475;-68
2023/10/09 01:21:14;;;;;;;7.30;3.47;;;;;;;;;;4998938;28;20026;-68
2023/10/09 01:24:19;;;;;;;9.95;3.55;;;;;;;;;;5011463;28;20463;-68
2023/10/09 01:26:46;;;;;;;8.73;3.37;;;;;;;;;;5013923;28;20044;-69
2023/10/09 01:29:14;;;;;;;9.40;3.40;;;;;;;;;;5011415;28;20018;-68
2023/10/09 01:32:00;;;;;;;8.53;3.30;;;;;;;;;;5007443;28;20490;-68
2023/10/09 01:34:41;;;;;;;8.77;3.47;;;;;;;;;;5011562;28;20038;-68
2023/10/09 01:37:19;;;;;;;9.93;3.93;;;;;;;;;;5004355;28;20025;-68
2023/10/09 01:39:51;;;;;;;10.00;3.63;;;;;;;;;;5003175;28;20065;-68
2023/10/09 01:42:44;;;;;;;7.47;3.07;;;;;;;;;;5011078;28;20032;-68
2023/10/09 01:45:27;;;;;;;12.07;3.77;;;;;;;;;;5010016;28;20373;-68
2023/10/09 01:47:53;;;;;;;10.07;3.20;;;;;;;;;;4996314;28;20022;-68
2023/10/09 01:50:27;;;;;;;5.73;2.87;;;;;;;;;;5006808;28;20094;-69
2023/10/09 01:52:52;;;;;;;8.80;3.50;;;;;;;;;;5012039;28;20022;-68
2023/10/09 01:55:34;;;;;;;7.33;3.20;;;;;;;;;;5027647;28;20044;-69
2023/10/09 01:58:05;;;;;;;8.67;3.90;;;;;;;;;;5009760;28;20095;-69
2023/10/09 02:00:30;;;;;;;8.70;3.20;;;;;;;;;;5010872;28;20064;-69
2023/10/09 02:02:55;;;;;;;10.83;3.70;;;;;;;;;;5011962;28;20469;-69
2023/10/09 02:07:52;;;;;;;8.77;3.70;;;;;;;;;;5008297;28;20035;-68
2023/10/09 02:10:25;;;;;;;9.02;3.70;;;;;;;;;;4992600;28;20092;-68
2023/10/09 02:12:58;;;;;;;7.23;3.40;;;;;;;;;;4999517;28;20022;-68
2023/10/09 02:23:38;;;;;;;8.50;3.90;;;;;;;;;;4970784;28;20030;-63
2023/10/09 02:26:05;;;;;;;11.00;4.00;;;;;;;;;;4956246;28;20595;-62
2023/10/09 02:28:34;;;;;;;9.00;3.93;;;;;;;;;;4970892;28;20077;-63
2023/10/09 02:31:18;;;;;;;10.13;3.87;;;;;;;;;;4970381;28;20027;-63
2023/10/09 02:33:44;;;;;;;13.60;4.10;;;;;;;;;;4970143;28;20204;-63
2023/10/09 02:36:09;;;;;;;9.10;3.83;;;;;;;;;;4967715;28;20026;-63
2023/10/09 02:38:40;;;;;;;8.87;4.03;;;;;;;;;;4968466;28;20030;-62
2023/10/09 02:46:30;;;;;;;11.10;4.00;;;;;;;;;;4931892;29;20032;-62
2023/10/09 02:48:57;;;;;;;10.20;4.00;;;;;;;;;;4932479;28;20027;-62
2023/10/09 02:53:52;;;;;;;11.73;4.17;;;;;;;;;;4932889;28;20055;-63
2023/10/09 02:56:23;;;;;;;8.80;3.80;;;;;;;;;;4937660;29;20031;-63
2023/10/09 02:58:49;;;;;;;8.57;3.85;;;;;;;;;;4947114;29;20015;-62
2023/10/09 03:01:14;;;;;;;8.03;3.87;;;;;;;;;;4945425;28;20039;-63
2023/10/09 03:03:44;;;;;;;15.17;4.33;;;;;;;;;;4944373;29;20520;-62
2023/10/09 03:06:12;;;;;;;9.13;3.87;;;;;;;;;;4950826;29;20034;-63
2023/10/09 03:08:37;;;;;;;11.70;4.67;;;;;;;;;;4950960;29;20031;-63
2023/10/09 03:11:05;;;;;;;9.83;4.20;;;;;;;;;;4950927;29;20110;-62
2023/10/09 03:13:33;;;;;;;15.23;4.67;;;;;;;;;;4950736;28;20023;-62
2023/10/09 03:15:58;;;;;;;10.33;4.17;;;;;;;;;;4938858;29;20539;-62
2023/10/09 03:18:23;;;;;;;13.50;4.90;;;;;;;;;;4948705;29;20035;-62
2023/10/09 03:20:50;;;;;;;14.63;4.90;;;;;;;;;;4932144;29;20066;-63
2023/10/09 03:23:15;;;;;;;15.23;5.20;;;;;;;;;;4992067;28;20498;-63
2023/10/09 03:25:45;;;;;;;14.43;5.50;;;;;;;;;;4995482;28;20030;-63
2023/10/09 03:28:10;;;;;;;12.80;5.13;;;;;;;;;;4991017;28;20468;-62
2023/10/09 03:30:37;;;;;;;19.50;6.83;;;;;;;;;;5002851;28;20018;-62
2023/10/09 03:33:04;;;;;;;19.80;7.90;;;;;;;;;;4999403;28;20084;-62
2023/10/09 03:35:33;;;;;;;25.90;8.70;;;;;;;;;;5004439;28;20025;-62
2023/10/09 03:38:18;;;;;;;22.70;8.87;;;;;;;;;;5010520;28;20045;-63
2023/10/09 03:40:44;;;;;;;29.03;11.43;;;;;;;;;;5009657;28;20049;-67
2023/10/09 03:43:13;;;;;;;27.33;11.70;;;;;;;;;;5010674;28;20053;-68
2023/10/09 03:45:45;;;;;;;33.80;13.50;;;;;;;;;;5000895;28;20057;-67
2023/10/09 03:48:26;;;;;;;;;;;;;;;;;;5009631;28;20391;-66
2023/10/09 03:51:08;;;;;;;34.07;13.60;;;;;;;;;;4991365;28;20332;-67
2023/10/09 03:53:36;;;;;;;41.77;14.17;;;;;;;;;;4993615;28;20030;-67
2023/10/09 03:56:05;;;;;;;40.70;14.43;;;;;;;;;;5008998;28;20495;-67
2023/10/09 03:58:33;;;;;;;46.30;16.47;;;;;;;;;;5009523;28;20032;-67
2023/10/09 04:00:58;;;;;;;46.70;15.43;;;;;;;;;;4999536;28;20078;-68
2023/10/09 04:03:24;;;;;;;48.00;16.57;;;;;;;;;;5003650;28;20519;-68
2023/10/09 04:05:51;;;;;;;45.93;16.67;;;;;;;;;;4997899;28;20022;-68
2023/10/09 04:08:19;;;;;;;52.10;17.20;;;;;;;;;;5010260;28;20030;-67
2023/10/09 04:10:51;;;;;;;47.70;17.30;;;;;;;;;;5010305;28;20049;-68
2023/10/09 04:13:22;;;;;;;50.38;18.42;;;;;;;;;;5000878;28;20030;-67
2023/10/09 04:15:49;;;;;;;54.20;19.45;;;;;;;;;;4999327;28;20030;-68
2023/10/09 04:18:15;;;;;;;55.00;18.90;;;;;;;;;;5008433;28;20026;-66
2023/10/09 04:21:08;;;;;;;59.10;20.37;;;;;;;;;;4990562;28;20015;-67
2023/10/09 04:23:36;;;;;;;65.70;20.58;;;;;;;;;;4990890;28;20027;-66
2023/10/09 04:26:10;;;;;;;56.27;21.07;;;;;;;;;;4990089;28;20038;-67
2023/10/09 04:28:36;;;;;;;71.77;22.40;;;;;;;;;;4997319;28;20026;-67
2023/10/09 04:31:06;;;;;;;67.70;22.77;;;;;;;;;;4994355;28;20106;-67
2023/10/09 04:46:44;;;;;;;76.23;24.53;;;;;;;;;;5003590;28;20037;-67
2023/10/09 04:49:27;;;;;;;79.07;23.13;;;;;;;;;;5013436;28;20483;-67
2023/10/09 04:52:17;;;;;;;73.90;23.73;;;;;;;;;;5006807;28;20021;-63
2023/10/09 04:55:12;;;;;;;74.30;24.17;;;;;;;;;;5011436;28;20025;-64
2023/10/09 04:57:29;;;;;;;79.80;25.37;;;;;;;;;;4997117;28;20332;-62
2023/10/09 04:59:58;;;;;;;82.27;25.00;;;;;;;;;;5002737;28;20022;-63
2023/10/09 05:02:24;;;;;;;72.63;23.40;;;;;;;;;;5007440;28;20504;-63
2023/10/09 05:05:15;;;;;;;79.73;24.57;;;;;;;;;;5022805;28;20029;-63
2023/10/09 05:07:54;;;;;;;76.97;23.77;;;;;;;;;;5012840;28;20442;-63
2023/10/09 05:10:24;;;;;;;76.27;23.43;;;;;;;;;;5013328;28;20021;-63
2023/10/09 05:12:56;;;;;;;83.93;23.77;;;;;;;;;;5005982;28;20018;-63
2023/10/09 05:15:26;;;;;;;78.53;23.80;;;;;;;;;;4992894;28;20023;-64
2023/10/09 05:17:56;;;;;;;72.47;24.17;;;;;;;;;;4992250;28;20054;-64
2023/10/09 05:22:58;;;;;;;83.75;24.38;;;;;;;;;;4993653;28;20130;-64
2023/10/09 05:28:58;;;;;;;92.40;24.83;;;;;;;;;;4993120;28;20555;-63
2023/10/09 05:31:08;;;;;;;79.40;24.73;;;;;;;;;;4998169;28;20117;-63
2023/10/09 05:33:36;;;;;;;83.60;24.63;;;;;;;;;;4993436;28;20389;-63
2023/10/09 05:36:14;;;;;;;78.50;24.70;;;;;;;;;;4993118;28;20018;-63
2023/10/09 05:38:46;;;;;;;93.20;27.67;;;;;;;;;;4993115;28;20396;-63
2023/10/09 05:50:34;;;;;;;97.30;27.03;;;;;;;;;;4952037;29;20556;-62
2023/10/09 05:53:55;;;;;;;100.85;27.83;;;;;;;;;;4956029;28;20023;-64
2023/10/09 06:03:23;;;;;;;100.10;29.55;;;;;;;;;;4951736;29;20041;-64
2023/10/09 06:08:38;;;;;;;99.00;29.83;;;;;;;;;;4951347;29;20027;-64
2023/10/09 06:11:38;;;;;;;114.17;31.83;;;;;;;;;;4951702;29;20023;-64
2023/10/09 06:14:02;;;;;;;111.80;33.23;;;;;;;;;;4951569;28;20019;-62
2023/10/09 06:16:59;;;;;;;112.33;35.27;;;;;;;;;;4951477;29;20432;-63
2023/10/09 06:19:28;;;;;;;121.85;36.03;;;;;;;;;;4951704;29;20047;-64
2023/10/09 06:24:41;;;;;;;115.15;36.05;;;;;;;;;;4991946;28;20102;-64
2023/10/09 06:29:35;;;;;;;125.70;36.40;;;;;;;;;;4992545;28;20022;-63
2023/10/09 06:34:46;;;;;;;128.02;37.45;;;;;;;;;;4992216;28;20446;-65
2023/10/09 06:37:19;;;;;;;121.37;36.40;;;;;;;;;;4992446;28;20091;-62
2023/10/09 06:40:08;;;;;;;115.65;36.17;;;;;;;;;;4992109;28;20038;-64
2023/10/09 06:42:34;;;;;;;118.28;36.88;;;;;;;;;;4992433;28;20105;-60
2023/10/09 06:45:00;;;;;;;124.53;36.75;;;;;;;;;;4992308;28;20049;-63
2023/10/09 06:47:25;;;;;;;124.28;37.00;;;;;;;;;;4992211;28;20110;-63
2023/10/09 06:50:24;;;;;;;121.72;37.05;;;;;;;;;;4992239;28;20372;-63
2023/10/09 06:56:01;;;;;;;122.40;35.78;;;;;;;;;;5051935;28;20082;-64
2023/10/09 06:58:27;;;;;;;124.20;36.55;;;;;;;;;;5051860;28;20095;-64
2023/10/09 07:03:32;;;;;;;129.95;39.03;;;;;;;;;;5051985;28;20025;-60
2023/10/09 07:06:24;;;;;;;117.30;36.70;;;;;;;;;;5051819;28;20502;-60
2023/10/09 07:09:15;;;;;;;;;;;;;;;;;;5059451;28;20093;-63
2023/10/09 07:14:07;;;;;;;119.03;37.08;;;;;;;;;;5071415;28;20051;-59
2023/10/09 07:16:38;;;;;;;123.43;38.22;;;;;;;;;;5071028;28;20084;-62
2023/10/09 07:19:09;;;;;;;124.28;35.20;;;;;;;;;;5071570;28;20029;-65
2023/10/09 07:21:35;;;;;;;122.03;37.00;;;;;;;;;;5071536;28;20036;-60
2023/10/09 07:24:14;;;;;;;124.63;37.88;;;;;;;;;;5071431;28;20017;-64
2023/10/09 07:26:47;;;;;;;126.93;36.13;;;;;;;;;;5071230;28;20555;-64
2023/10/09 07:29:47;;;;;;;106.05;36.00;;;;;;;;;;5071381;28;20048;-63
2023/10/09 07:31:57;;;;;;;116.57;35.80;;;;;;;;;;5071653;28;20041;-61
2023/10/09 07:34:52;;;;;;;120.97;35.08;;;;;;;;;;5073494;28;20023;-64
2023/10/09 07:37:19;;;;;;;113.35;33.60;;;;;;;;;;5073564;28;20466;-64
2023/10/09 07:39:49;;;;;;;128.57;34.38;;;;;;;;;;5073205;28;20035;-65
2023/10/09 07:42:18;;;;;;;117.43;34.45;;;;;;;;;;5073350;28;20406;-63
2023/10/09 07:44:52;;;;;;;122.40;37.45;;;;;;;;;;5073457;28;20031;-64
2023/10/09 07:47:19;;;;;;;130.07;37.20;;;;;;;;;;5073493;28;20466;-62
2023/10/09 07:49:51;;;;;;;121.43;35.47;;;;;;;;;;5073453;28;20504;-64
2023/10/09 07:52:16;;;;;;;121.28;36.83;;;;;;;;;;5073111;28;20040;-63
2023/10/09 07:54:49;;;;;;;114.30;35.63;;;;;;;;;;5088787;28;20067;-62
2023/10/09 07:57:16;;;;;;;127.57;37.65;;;;;;;;;;5092896;28;20035;-61
2023/10/09 07:59:54;;;;;;;128.02;37.10;;;;;;;;;;5093508;28;20504;-63
2023/10/09 08:02:31;;;;;;;120.13;37.35;;;;;;;;;;5093157;28;20050;-64
2023/10/09 08:05:03;;;;;;;120.13;36.35;;;;;;;;;;5093070;28;20500;-63
2023/10/09 08:07:34;;;;;;;112.30;35.53;;;;;;;;;;5093048;28;20024;-64
2023/10/09 08:17:59;;;;;;;103.97;33.88;;;;;;;;;;5016673;28;20538;-63
2023/10/09 08:20:25;;;;;;;108.95;35.47;;;;;;;;;;5010719;28;20426;-67
2023/10/09 08:22:52;;;;;;;113.72;35.70;;;;;;;;;;4994325;28;20032;-68
2023/10/09 08:25:27;;;;;;;108.57;35.97;;;;;;;;;;4990596;28;20025;-68
2023/10/09 08:27:57;;;;;;;108.13;35.67;;;;;;;;;;4990669;28;20029;-68
2023/10/09 08:33:02;;;;;;;101.22;32.80;;;;;;;;;;4990821;28;20029;-68
2023/10/09 08:35:33;;;;;;;100.65;33.35;;;;;;;;;;4990135;28;20015;-69
2023/10/09 08:38:07;;;;;;;106.07;33.50;;;;;;;;;;4990530;28;20488;-67
2023/10/09 08:40:38;;;;;;;101.68;32.72;;;;;;;;;;4994241;28;20083;-68
2023/10/09 08:43:14;;;;;;;97.03;32.70;;;;;;;;;;5010257;28;20551;-68
2023/10/09 08:45:40;;;;;;;95.50;31.55;;;;;;;;;;5010258;28;20384;-68
2023/10/09 08:48:15;;;;;;;103.28;34.25;;;;;;;;;;5009824;28;20018;-67
2023/10/09 08:50:41;;;;;;;110.75;33.85;;;;;;;;;;5010082;28;20487;-67
2023/10/09 08:53:07;;;;;;;114.03;36.70;;;;;;;;;;5010155;28;20493;-67
2023/10/09 08:55:32;;;;;;;102.65;34.13;;;;;;;;;;5010030;28;20022;-67
2023/10/09 08:57:58;;;;;;;122.15;38.67;;;;;;;;;;5010011;28;20376;-67
2023/10/09 09:00:23;;;;;;;109.90;35.70;;;;;;;;;;5010026;28;20022;-66
2023/10/09 09:02:55;;;;;;;128.27;39.47;;;;;;;;;;5009761;28;20109;-68
2023/10/09 09:05:20;;;;;;;;;;;;;;;;;;5010456;28;20029;-69
2023/10/09 09:07:46;;;;;;;95.43;32.17;;;;;;;;;;5009474;28;20430;-68
2023/10/09 09:10:17;;;;;;;94.45;32.33;;;;;;;;;;5009631;28;20017;-66
2023/10/09 09:12:45;;;;;;;96.97;31.45;;;;;;;;;;5009935;28;20417;-67
2023/10/09 09:15:20;;;;;;;100.78;33.42;;;;;;;;;;5009930;28;20029;-68
2023/10/09 09:17:51;;;;;;;90.85;30.25;;;;;;;;;;5009376;28;20057;-67
2023/10/09 09:20:25;;;;;;;92.15;32.60;;;;;;;;;;5009835;28;20479;-68
2023/10/09 09:22:51;;;;;;;85.57;30.85;;;;;;;;;;5009508;28;20021;-66
2023/10/09 09:25:17;;;;;;;87.80;30.25;;;;;;;;;;5009745;28;20451;-67
2023/10/09 09:27:56;;;;;;;83.90;30.67;;;;;;;;;;5012625;28;20025;-66
2023/10/09 09:30:26;;;;;;;77.05;30.50;;;;;;;;;;5012786;28;20021;-67
2023/10/09 09:33:15;;;;;;;79.95;29.42;;;;;;;;;;5013084;28;20421;-68
2023/10/09 09:35:37;;;;;;;79.32;29.23;;;;;;;;;;5012614;28;20014;-66
2023/10/09 09:38:05;;;;;;;77.45;29.83;;;;;;;;;;5012690;28;20026;-65
2023/10/09 09:40:32;;;;;;;76.57;28.38;;;;;;;;;;5012660;28;20077;-66
2023/10/09 09:43:04;;;;;;;76.85;28.42;;;;;;;;;;5012622;28;20076;-68
2023/10/09 09:45:32;;;;;;;88.10;31.38;;;;;;;;;;5012826;28;20026;-67
2023/10/09 09:48:01;;;;;;;92.60;32.80;;;;;;;;;;5012690;28;20357;-69
2023/10/09 09:50:29;;;;;;;75.43;28.10;;;;;;;;;;5012211;28;20026;-67
2023/10/09 09:52:55;;;;;;;82.68;30.58;;;;;;;;;;5012614;28;20014;-67
2023/10/09 09:55:22;;;;;;;79.53;30.08;;;;;;;;;;5012745;28;20421;-67
2023/10/09 09:57:51;;;;;;;80.43;30.00;;;;;;;;;;5012249;28;20022;-67
2023/10/09 10:00:30;;;;;;;76.28;28.08;;;;;;;;;;5011831;28;20051;-66
2023/10/09 10:03:06;;;;;;;86.25;31.40;;;;;;;;;;5012179;28;20030;-65
2023/10/09 10:05:32;;;;;;;78.80;30.00;;;;;;;;;;5012253;28;20018;-65
2023/10/09 10:07:58;;;;;;;76.18;31.73;;;;;;;;;;5012117;28;20094;-67
2023/10/09 10:13:40;;;;;;;71.82;29.17;;;;;;;;;;5012382;28;20024;-66
2023/10/09 10:16:13;;;;;;;65.15;26.95;;;;;;;;;;5011852;28;20054;-66
2023/10/09 10:21:48;;;;;;;64.88;28.38;;;;;;;;;;4932661;29;20039;-65
2023/10/09 10:24:13;;;;;;;;;;;;;;;;;;4933001;29;20030;-65
2023/10/09 10:26:40;;;;;;;62.58;25.98;;;;;;;;;;4929694;29;19989;-65
2023/10/09 10:29:23;;;;;;;57.08;25.45;;;;;;;;;;4931675;29;20268;-64
2023/10/09 10:31:51;;;;;;;54.47;25.02;;;;;;;;;;4932318;29;20024;-66
2023/10/09 10:34:23;;;;;;;61.13;25.88;;;;;;;;;;4932374;29;20032;-65
2023/10/09 10:36:52;;;;;;;;;;;;;;;;;;4932378;29;20119;-66
2023/10/09 10:39:21;;;;;;;53.53;24.08;;;;;;;;;;4932254;29;20395;-66
2023/10/09 10:41:53;;;;;;;47.95;22.92;;;;;;;;;;4932399;29;20543;-65
2023/10/09 10:44:36;;;;;;;43.25;21.80;;;;;;;;;;4931992;29;20027;-65
2023/10/09 10:47:02;;;;;;;41.63;20.27;;;;;;;;;;4932122;29;20027;-62
2023/10/09 10:49:36;;;;;;;42.10;21.83;;;;;;;;;;4932202;29;20126;-65
2023/10/09 10:52:15;;;;;;;45.25;20.48;;;;;;;;;;4958296;28;20495;-66
2023/10/09 10:57:28;;;;;;;41.42;19.65;;;;;;;;;;5011500;28;20078;-65
2023/10/09 11:00:12;;;;;;;42.30;20.33;;;;;;;;;;5011700;28;20479;-66
2023/10/09 11:02:39;;;;;;;36.50;20.00;;;;;;;;;;5011384;28;20022;-67
2023/10/09 11:05:23;;;;;;;35.47;18.92;;;;;;;;;;5011645;28;20029;-65
2023/10/09 11:07:52;;;;;;;38.55;19.77;;;;;;;;;;5011236;28;20103;-64
2023/10/09 11:10:27;;;;;;;40.47;18.52;;;;;;;;;;5011535;28;20098;-66
2023/10/09 11:15:37;;;;;;;32.35;18.30;;;;;;;;;;4991943;28;20027;-65
2023/10/09 11:18:25;;;;;;;37.25;17.17;;;;;;;;;;4991330;28;20476;-65
2023/10/09 11:21:22;;;;;;;30.35;15.32;;;;;;;;;;4991391;28;20034;-65
2023/10/09 11:24:24;;;;;;;33.55;17.40;;;;;;;;;;4991293;28;20054;-65
2023/10/09 11:26:40;;;;;;;31.30;17.30;;;;;;;;;;4991132;28;20101;-66
2023/10/09 11:32:04;;;;;;;32.43;16.77;;;;;;;;;;4991637;28;20091;-66
2023/10/09 11:34:29;;;;;;;27.65;13.75;;;;;;;;;;4991401;28;20342;-66
2023/10/09 11:36:58;;;;;;;27.00;15.45;;;;;;;;;;4991242;28;20081;-65
2023/10/09 11:39:34;;;;;;;30.25;16.00;;;;;;;;;;4991632;28;20481;-65
2023/10/09 11:42:09;;;;;;;29.00;16.23;;;;;;;;;;4991270;28;20038;-66
2023/10/09 11:44:39;;;;;;;29.35;16.70;;;;;;;;;;4991296;28;20034;-65
2023/10/09 11:47:24;;;;;;;30.30;15.20;;;;;;;;;;4991197;28;20468;-66
2023/10/09 11:49:57;;;;;;;31.13;16.13;;;;;;;;;;4990107;28;20019;-66
2023/10/09 11:54:56;;;;;;;29.27;15.77;;;;;;;;;;5010869;28;20109;-66
2023/10/09 11:57:30;;;;;;;28.60;14.65;;;;;;;;;;5010582;28;20516;-66
2023/10/09 11:59:55;;;;;;;29.33;16.25;;;;;;;;;;5010813;28;20033;-66
2023/10/09 12:02:21;;;;;;;29.52;15.75;;;;;;;;;;5010777;28;20488;-67
2023/10/09 12:04:46;;;;;;;24.90;13.50;;;;;;;;;;5010564;28;20022;-66
2023/10/09 12:07:11;;;;;;;25.50;13.90;;;;;;;;;;5010201;28;20076;-66
2023/10/09 12:09:39;;;;;;;25.15;13.57;;;;;;;;;;5010266;28;20022;-66
2023/10/09 12:12:06;;;;;;;26.70;14.20;;;;;;;;;;5009437;28;20022;-67
2023/10/09 12:14:33;;;;;;;23.42;12.35;;;;;;;;;;4991112;28;20030;-66
2023/10/09 12:17:05;;;;;;;22.27;12.63;;;;;;;;;;4990633;28;20050;-66
2023/10/09 12:19:35;;;;;;;19.35;10.00;;;;;;;;;;4990906;28;20046;-66
2023/10/09 12:22:03;;;;;;;18.67;11.00;;;;;;;;;;4994575;28;20426;-65
2023/10/09 12:24:29;;;;;;;20.33;12.20;;;;;;;;;;4990657;28;20035;-68
2023/10/09 12:26:54;;;;;;;20.45;11.70;;;;;;;;;;4990722;28;20103;-66
2023/10/09 12:29:19;;;;;;;19.58;11.40;;;;;;;;;;4990893;28;20023;-66
2023/10/09 12:31:45;;;;;;;21.25;12.35;;;;;;;;;;4990117;28;20554;-67
2023/10/09 12:34:15;;;;;;;19.42;11.15;;;;;;;;;;4990571;28;20018;-65
2023/10/09 12:36:43;;;;;;;21.23;10.77;;;;;;;;;;4990445;28;20015;-66
2023/10/09 12:39:17;;;;;;;21.73;11.35;;;;;;;;;;4993871;28;20109;-67
2023/10/09 12:41:42;;;;;;;17.02;10.15;;;;;;;;;;5010238;28;20014;-67
2023/10/09 12:44:14;;;;;;;19.52;10.43;;;;;;;;;;5009892;28;20424;-67
2023/10/09 12:46:39;;;;;;;18.10;10.63;;;;;;;;;;5010116;28;20585;-68
2023/10/09 12:49:05;;;;;;;17.83;9.50;;;;;;;;;;5009912;28;20030;-67
2023/10/09 12:51:31;;;;;;;16.98;9.82;;;;;;;;;;5010256;28;20018;-67
2023/10/09 12:54:01;;;;;;;17.35;9.52;;;;;;;;;;5009956;28;20463;-66
2023/10/09 12:56:32;;;;;;;17.35;8.48;;;;;;;;;;5009738;28;20101;-67
2023/10/09 12:59:00;;;;;;;16.33;8.40;;;;;;;;;;5010132;28;20494;-67
2023/10/09 13:01:25;;;;;;;13.23;7.65;;;;;;;;;;5012450;28;20024;-66
2023/10/09 13:03:51;;;;;;;15.45;7.90;;;;;;;;;;5013250;28;20018;-68
2023/10/09 13:06:23;;;;;;;13.23;7.32;;;;;;;;;;5013616;28;20018;-68
2023/10/09 13:08:49;;;;;;;13.52;7.05;;;;;;;;;;5012914;28;20026;-68
2023/10/09 13:11:17;;;;;;;14.30;7.07;;;;;;;;;;5013278;28;20018;-68
2023/10/09 13:13:43;;;;;;;14.55;7.03;;;;;;;;;;5012966;28;20029;-67
2023/10/09 13:16:24;;;;;;;13.70;7.03;;;;;;;;;;5012807;28;20041;-68
2023/10/09 13:18:50;;;;;;;10.95;6.78;;;;;;;;;;5013264;28;20042;-68
2023/10/09 13:21:16;;;;;;;16.15;7.50;;;;;;;;;;5012851;28;20556;-68
2023/10/09 13:23:46;;;;;;;14.25;7.35;;;;;;;;;;5012827;28;20018;-68
2023/10/09 13:26:17;;;;;;;14.48;7.88;;;;;;;;;;5013119;28;20026;-68
2023/10/09 13:28:46;;;;;;;14.40;7.53;;;;;;;;;;5013064;28;20058;-68
2023/10/09 13:31:15;;;;;;;13.73;7.38;;;;;;;;;;5013056;28;20548;-68
2023/10/09 13:33:41;;;;;;;14.27;7.75;;;;;;;;;;5013019;28;20048;-68
2023/10/09 13:36:19;;;;;;;13.93;7.30;;;;;;;;;;5013009;28;20029;-69
2023/10/09 13:38:44;;;;;;;15.25;7.40;;;;;;;;;;5012765;28;20029;-69
2023/10/09 13:41:12;;;;;;;13.00;7.78;;;;;;;;;;5012666;28;20101;-69
2023/10/09 13:43:42;;;;;;;14.48;7.72;;;;;;;;;;5012915;28;20495;-69
2023/10/09 13:46:08;;;;;;;16.50;7.88;;;;;;;;;;5012676;28;20053;-69
2023/10/09 13:48:38;;;;;;;14.20;7.68;;;;;;;;;;5012455;28;20037;-69
2023/10/09 13:51:07;;;;;;;17.10;8.35;;;;;;;;;;5012446;28;20026;-69
2023/10/09 13:53:32;;;;;;;17.20;8.45;;;;;;;;;;5012458;28;20029;-68
2023/10/09 13:55:58;;;;;;;16.42;7.20;;;;;;;;;;5012156;28;20383;-68
2023/10/09 13:58:23;;;;;;;16.38;7.70;;;;;;;;;;5012307;28;20143;-67
2023/10/09 14:00:50;;;;;;;12.10;5.90;;;;;;;;;;5011996;28;20025;-67
2023/10/09 14:03:19;;;;;;;11.27;6.07;;;;;;;;;;5012191;28;20025;-67
2023/10/09 14:05:54;;;;;;;13.02;6.47;;;;;;;;;;5012468;28;20507;-68
2023/10/09 14:08:22;;;;;;;15.10;6.80;;;;;;;;;;5012283;28;20052;-67
2023/10/09 14:10:48;;;;;;;16.83;6.38;;;;;;;;;;5012113;28;20018;-68
2023/10/09 14:13:14;;;;;;;14.65;6.30;;;;;;;;;;5011788;28;20055;-63
2023/10/09 14:15:41;;;;;;;18.48;6.40;;;;;;;;;;5012423;28;20464;-63
2023/10/09 14:18:08;;;;;;;12.95;5.80;;;;;;;;;;5011767;28;20046;-63
2023/10/09 14:20:34;;;;;;;13.07;6.60;;;;;;;;;;5011962;28;20429;-63
2023/10/09 14:23:06;;;;;;;10.93;5.57;;;;;;;;;;5012315;28;20025;-62
2023/10/09 14:25:31;;;;;;;9.95;5.30;;;;;;;;;;5008970;28;20010;-63
2023/10/09 14:27:57;;;;;;;10.30;5.60;;;;;;;;;;4992426;28;20038;-63
2023/10/09 14:30:30;;;;;;;13.73;6.03;;;;;;;;;;4992996;28;20483;-64
2023/10/09 14:32:56;;;;;;;14.02;5.75;;;;;;;;;;4994935;28;20156;-63
2023/10/09 14:35:26;;;;;;;10.02;5.13;;;;;;;;;;4992386;28;20464;-63
2023/10/09 14:37:53;;;;;;;11.60;5.60;;;;;;;;;;4992192;28;20039;-62
2023/10/09 14:40:29;;;;;;;15.55;6.78;;;;;;;;;;4992507;28;20589;-61
2023/10/09 14:42:54;;;;;;;12.40;5.65;;;;;;;;;;4992414;28;20519;-63
2023/10/09 14:45:21;;;;;;;12.38;5.38;;;;;;;;;;4992107;28;20022;-63
2023/10/09 14:47:46;;;;;;;12.23;5.93;;;;;;;;;;4992316;28;20468;-63
2023/10/09 14:50:13;;;;;;;12.05;5.00;;;;;;;;;;4992316;28;20018;-63
2023/10/09 14:52:39;;;;;;;12.65;5.57;;;;;;;;;;4992226;28;20479;-63
2023/10/09 14:55:05;;;;;;;17.40;6.13;;;;;;;;;;4992154;28;20015;-64
2023/10/09 14:57:33;;;;;;;19.23;6.53;;;;;;;;;;4991953;28;20080;-64
2023/10/09 14:59:59;;;;;;;17.65;6.05;;;;;;;;;;4992121;28;20380;-64
2023/10/09 15:02:24;;;;;;;15.00;6.05;;;;;;;;;;4992070;28;20029;-64
2023/10/09 15:04:49;;;;;;;18.00;6.47;;;;;;;;;;4991804;28;20026;-65
2023/10/09 15:07:15;;;;;;;19.08;6.53;;;;;;;;;;4991890;28;20388;-64
2023/10/09 15:09:41;;;;;;;16.08;6.50;;;;;;;;;;4991608;28;20384;-63
2023/10/09 15:12:07;;;;;;;17.38;6.05;;;;;;;;;;4993125;28;20019;-63
2023/10/09 15:14:32;;;;;;;16.27;6.43;;;;;;;;;;5011451;28;20517;-64
2023/10/09 15:16:57;;;;;;;15.18;6.05;;;;;;;;;;5011041;28;20341;-63
2023/10/09 15:19:29;;;;;;;16.30;6.20;;;;;;;;;;5011171;28;20379;-63
2023/10/09 15:21:54;;;;;;;17.35;5.82;;;;;;;;;;5011348;28;20429;-63
2023/10/09 15:24:20;;;;;;;15.20;5.50;;;;;;;;;;5009920;28;20026;-68
2023/10/09 15:26:52;;;;;;;16.42;6.55;;;;;;;;;;5010873;28;20018;-68
2023/10/09 15:29:27;;;;;;;15.77;5.88;;;;;;;;;;5010948;28;20025;-68
2023/10/09 15:31:54;;;;;;;15.00;5.50;;;;;;;;;;5011117;28;20475;-68
2023/10/09 15:34:20;;;;;;;18.02;5.68;;;;;;;;;;5010958;28;20021;-67
2023/10/09 15:36:48;;;;;;;15.50;5.22;;;;;;;;;;5010741;28;20079;-67
2023/10/09 15:39:14;;;;;;;15.68;5.63;;;;;;;;;;5010851;28;20044;-67
2023/10/09 15:41:40;;;;;;;16.40;5.32;;;;;;;;;;5010889;28;20022;-68
2023/10/09 15:44:05;;;;;;;17.05;5.28;;;;;;;;;;5010971;28;20026;-67
2023/10/09 15:46:34;;;;;;;13.93;5.30;;;;;;;;;;5011120;28;20018;-67
2023/10/09 15:49:00;;;;;;;13.82;6.10;;;;;;;;;;5010534;28;20029;-68
2023/10/09 15:51:25;;;;;;;16.42;5.47;;;;;;;;;;5010938;28;20022;-67
2023/10/09 15:53:51;;;;;;;19.67;7.00;;;;;;;;;;5009964;28;20337;-67
2023/10/09 15:56:17;;;;;;;18.70;6.38;;;;;;;;;;4991450;28;20148;-67
2023/10/09 15:58:43;;;;;;;14.65;5.38;;;;;;;;;;5008357;28;20467;-68
2023/10/09 16:01:12;;;;;;;20.85;5.90;;;;;;;;;;5008274;28;20475;-68
2023/10/09 16:03:38;;;;;;;12.77;6.05;;;;;;;;;;4994708;28;20065;-68
2023/10/09 16:06:05;;;;;;;18.63;5.60;;;;;;;;;;5008554;28;20061;-67
2023/10/09 16:08:31;;;;;;;18.48;5.88;;;;;;;;;;4999163;28;20042;-67
2023/10/09 16:10:58;;;;;;;17.70;5.68;;;;;;;;;;5008433;28;20041;-68
2023/10/09 16:13:23;;;;;;;18.63;5.72;;;;;;;;;;5010487;28;20071;-67
2023/10/09 16:15:49;;;;;;;17.98;5.90;;;;;;;;;;5010470;28;20472;-68
2023/10/09 16:18:14;;;;;;;13.52;5.25;;;;;;;;;;4998946;28;20368;-67
2023/10/09 16:20:39;;;;;;;16.20;5.57;;;;;;;;;;4997411;28;20034;-68
2023/10/09 16:23:04;;;;;;;16.45;5.65;;;;;;;;;;5002089;28;20053;-68
2023/10/09 16:25:30;;;;;;;18.42;5.88;;;;;;;;;;5000568;28;20026;-68
2023/10/09 16:27:58;;;;;;;18.65;5.80;;;;;;;;;;4991986;28;20041;-67
2023/10/09 16:30:23;;;;;;;15.75;6.05;;;;;;;;;;4990922;28;20030;-68
2023/10/09 16:32:49;;;;;;;17.48;6.47;;;;;;;;;;5005196;28;20646;-68
2023/10/09 16:35:14;;;;;;;16.42;7.00;;;;;;;;;;5002115;28;20108;-68